createdAt,value
2022-11-13T00:01:44.710Z,100220.23
2022-11-13T00:07:05.350Z,100224.34
2022-11-13T00:12:28.921Z,100223.30
2022-11-13T00:17:49.453Z,100217.94
2022-11-13T00:23:09.859Z,100217.48
2022-11-13T00:28:30.465Z,100221.89
2022-11-13T00:39:34.258Z,100215.11
2022-11-13T00:44:54.807Z,100215.36
2022-11-13T00:50:15.351Z,100210.38
2022-11-13T00:55:35.488Z,100204.72
2022-11-13T01:00:55.962Z,100201.35
2022-11-13T01:06:18.474Z,100198.39
2022-11-13T01:11:38.971Z,100192.30
2022-11-13T01:16:59.240Z,100182.48
2022-11-13T01:22:19.739Z,100189.39
2022-11-13T01:27:40.274Z,100181.05
2022-11-13T01:33:00.709Z,100176.88
2022-11-13T01:38:21.358Z,100173.48
2022-11-13T01:43:42.048Z,100168.55
2022-11-13T01:49:11.843Z,100159.26
2022-11-13T01:54:33.593Z,100146.59
2022-11-13T01:59:56.753Z,100140.19
2022-11-13T02:05:17.467Z,100139.10
2022-11-13T02:10:38.064Z,100138.15
2022-11-13T02:15:58.467Z,100132.30
2022-11-13T02:21:18.584Z,100128.15
2022-11-13T02:26:39.978Z,100124.02
2022-11-13T02:32:00.303Z,100130.47
2022-11-13T02:37:20.993Z,100139.90
2022-11-13T02:42:41.629Z,100141.40
2022-11-13T02:48:01.949Z,100139.39
2022-11-13T02:53:22.067Z,100138.23
2022-11-13T02:58:42.590Z,100138.80
2022-11-13T03:04:02.866Z,100138.04
2022-11-13T03:09:23.456Z,100136.08
2022-11-13T03:14:43.990Z,100141.39
2022-11-13T03:20:05.007Z,100135.92
2022-11-13T03:25:25.485Z,100134.03
2022-11-13T03:30:47.300Z,100136.24
2022-11-13T03:36:07.730Z,100139.23
2022-11-13T03:41:28.346Z,100143.06
2022-11-13T03:46:48.650Z,100144.85
2022-11-13T03:52:09.197Z,100142.69
2022-11-13T03:57:29.442Z,100139.54
2022-11-13T04:02:50.000Z,100133.70
2022-11-13T04:08:10.476Z,100125.48
2022-11-13T04:13:30.804Z,100126.81
2022-11-13T04:18:51.519Z,100131.61
2022-11-13T04:24:12.103Z,100135.53
2022-11-13T04:29:32.564Z,100135.79
2022-11-13T04:34:53.224Z,100134.13
2022-11-13T04:40:13.565Z,100133.88
2022-11-13T04:45:33.934Z,100128.79
2022-11-13T04:50:54.378Z,100131.61
2022-11-13T04:56:14.763Z,100122.38
2022-11-13T05:01:36.291Z,100135.79
2022-11-13T05:06:56.997Z,100131.53
2022-11-13T05:12:17.300Z,100129.54
2022-11-13T05:17:37.711Z,100134.09
2022-11-13T05:22:58.129Z,100132.73
2022-11-13T05:28:18.920Z,100121.71
2022-11-13T05:33:39.950Z,100117.60
2022-11-13T05:39:00.525Z,100117.85
2022-11-13T05:44:21.033Z,100118.39
2022-11-13T05:49:41.177Z,100121.36
2022-11-13T05:55:01.697Z,100110.11
2022-11-13T06:00:22.251Z,100104.66
2022-11-13T06:05:42.847Z,100107.45
2022-11-13T06:11:05.127Z,100111.41
2022-11-13T06:16:26.953Z,100109.13
2022-11-13T06:21:47.571Z,100105.14
2022-11-13T06:27:08.073Z,100106.77
2022-11-13T06:32:28.474Z,100112.22
2022-11-13T06:37:48.705Z,100109.29
2022-11-13T06:43:09.305Z,100109.52
2022-11-13T06:48:29.840Z,100100.27
2022-11-13T06:53:51.169Z,100101.06
2022-11-13T06:59:11.734Z,100099.05
2022-11-13T07:04:32.161Z,100103.30
2022-11-13T07:09:52.490Z,100097.61
2022-11-13T07:15:12.891Z,100098.95
2022-11-13T07:20:33.692Z,100096.35
2022-11-13T07:25:55.418Z,100095.43
2022-11-13T07:31:17.095Z,100092.84
2022-11-13T07:36:37.597Z,100091.12
2022-11-13T07:41:57.804Z,100088.84
2022-11-13T07:47:18.203Z,100084.36
2022-11-13T07:52:38.920Z,100086.06
2022-11-13T07:57:59.866Z,100091.96
2022-11-13T08:03:20.323Z,100094.90
2022-11-13T08:08:40.599Z,100101.15
2022-11-13T08:14:01.451Z,100101.96
2022-11-13T08:19:21.549Z,100096.39
2022-11-13T08:24:42.035Z,100092.99
2022-11-13T08:30:02.636Z,100092.82
2022-11-13T08:35:29.002Z,100086.95
2022-11-13T08:40:49.895Z,100095.52
2022-11-13T08:46:10.640Z,100092.55
2022-11-13T08:51:31.098Z,100091.80
2022-11-13T08:56:56.564Z,100091.98
2022-11-13T09:02:18.462Z,100096.95
2022-11-13T09:07:39.082Z,100106.17
2022-11-13T09:13:01.973Z,100107.60
2022-11-13T09:18:22.411Z,100109.44
2022-11-13T09:23:42.939Z,100103.92
2022-11-13T09:29:03.828Z,100106.45
2022-11-13T09:34:25.522Z,100106.54
2022-11-13T09:39:45.995Z,100112.05
2022-11-13T09:45:08.180Z,100109.63
2022-11-13T09:50:31.344Z,100107.42
2022-11-13T09:55:58.134Z,100100.30
2022-11-13T10:01:23.920Z,100098.49
2022-11-13T10:06:49.664Z,100093.40
2022-11-13T10:12:14.073Z,100087.93
2022-11-13T10:17:39.925Z,100087.92
2022-11-13T10:23:00.607Z,100086.19
2022-11-13T10:28:49.650Z,100076.42
2022-11-13T10:34:06.832Z,100073.03
2022-11-13T10:39:27.543Z,100069.27
2022-11-13T10:44:56.143Z,100066.64
2022-11-13T10:50:24.909Z,100067.45
2022-11-13T10:55:45.503Z,100070.04
2022-11-13T11:01:16.393Z,100064.92
2022-11-13T11:12:27.164Z,100054.67
2022-11-13T11:17:54.125Z,100045.50
2022-11-13T11:23:33.362Z,100035.84
2022-11-13T11:29:03.366Z,100033.02
2022-11-13T11:34:33.941Z,100031.71
2022-11-13T11:39:58.355Z,100021.09
2022-11-13T11:45:24.673Z,100012.52
2022-11-13T11:50:46.541Z,100012.23
2022-11-13T11:56:12.837Z,100004.57
2022-11-13T12:01:53.365Z,99996.54
2022-11-13T12:07:22.670Z,99986.18
2022-11-13T12:12:45.804Z,99974.77
2022-11-13T12:18:18.323Z,99963.30
2022-11-13T12:23:53.686Z,99954.40
2022-11-13T12:29:17.251Z,99943.11
2022-11-13T12:34:41.162Z,99935.62
2022-11-13T12:40:06.664Z,99931.07
2022-11-13T12:45:39.113Z,99921.38
2022-11-13T12:51:00.629Z,99913.13
2022-11-13T12:56:24.281Z,99908.93
2022-11-13T13:01:47.693Z,99906.73
2022-11-13T13:07:11.203Z,99896.23
2022-11-13T13:12:31.931Z,99900.30
2022-11-13T13:18:12.804Z,99896.66
2022-11-13T13:23:33.079Z,99889.69
2022-11-13T13:28:54.696Z,99888.44
2022-11-13T13:34:34.671Z,99882.90
2022-11-13T13:40:02.892Z,99880.48
2022-11-13T13:45:27.594Z,99879.79
2022-11-13T13:50:49.660Z,99871.07
2022-11-13T13:56:11.783Z,99871.86
2022-11-13T14:01:33.540Z,99864.30
2022-11-13T14:06:58.165Z,99863.46
2022-11-13T14:12:20.192Z,99865.77
2022-11-13T14:17:40.705Z,99873.02
2022-11-13T14:23:01.613Z,99871.40
2022-11-13T14:28:23.995Z,99863.15
2022-11-13T14:33:45.742Z,99862.78
2022-11-13T14:39:06.487Z,99858.04
2022-11-13T14:44:31.912Z,99856.79
2022-11-13T14:49:53.378Z,99855.34
2022-11-13T14:55:21.137Z,99846.46
2022-11-13T15:00:41.350Z,99847.74
2022-11-13T15:06:01.919Z,99841.28
2022-11-13T15:11:23.648Z,99840.40
2022-11-13T15:16:44.763Z,99843.27
2022-11-13T15:27:49.920Z,99840.52
2022-11-13T15:33:13.077Z,99837.10
2022-11-13T15:38:33.614Z,99835.65
2022-11-13T15:43:55.521Z,99834.21
2022-11-13T15:49:15.992Z,99839.78
2022-11-13T15:54:38.021Z,99838.58
2022-11-13T15:59:58.791Z,99835.63
2022-11-13T16:05:19.439Z,99842.75
2022-11-13T16:10:39.832Z,99849.05
2022-11-13T16:16:01.116Z,99851.70
2022-11-13T16:21:22.099Z,99853.55
2022-11-13T16:26:46.140Z,99860.20
2022-11-13T16:32:12.474Z,99862.63
2022-11-13T16:37:32.904Z,99859.00
2022-11-13T16:42:54.017Z,99859.29
2022-11-13T16:48:15.736Z,99855.86
2022-11-13T16:53:35.915Z,99849.98
2022-11-13T16:58:56.885Z,99844.63
2022-11-13T17:04:17.168Z,99845.65
2022-11-13T17:09:39.310Z,99848.12
2022-11-13T17:14:59.976Z,99845.73
2022-11-13T17:20:20.190Z,99850.00
2022-11-13T17:25:40.316Z,99841.27
2022-11-13T17:31:08.917Z,99840.48
2022-11-13T17:36:29.369Z,99838.65
2022-11-13T17:41:50.691Z,99836.81
2022-11-13T17:47:11.092Z,99839.97
2022-11-13T17:52:31.599Z,99841.97
2022-11-13T17:57:52.037Z,99839.67
2022-11-13T18:03:12.369Z,99822.86
2022-11-13T18:08:33.410Z,99827.23
2022-11-13T18:13:53.891Z,99827.11
2022-11-13T18:19:14.298Z,99823.44
2022-11-13T18:24:34.677Z,99824.34
2022-11-13T18:29:55.461Z,99830.38
2022-11-13T18:35:15.866Z,99830.27
2022-11-13T18:40:36.896Z,99828.88
2022-11-13T18:45:57.873Z,99830.08
2022-11-13T18:51:20.441Z,99827.95
2022-11-13T18:56:41.259Z,99828.26
2022-11-13T19:02:01.964Z,99827.60
2022-11-13T19:07:22.537Z,99838.55
2022-11-13T19:12:43.052Z,99836.86
2022-11-13T19:18:03.950Z,99840.46
2022-11-13T19:23:24.067Z,99841.55
2022-11-13T19:28:51.407Z,99839.37
2022-11-13T19:34:12.418Z,99842.36
2022-11-13T19:39:32.975Z,99843.53
2022-11-13T19:44:53.306Z,99840.77
2022-11-13T19:50:13.679Z,99841.27
2022-11-13T19:55:34.915Z,99836.83
2022-11-13T20:00:56.109Z,99834.20
2022-11-13T20:06:17.402Z,99836.55
2022-11-13T20:11:37.542Z,99831.98
2022-11-13T20:16:57.950Z,99829.16
2022-11-13T20:22:18.267Z,99823.56
2022-11-13T20:27:41.829Z,99819.96
2022-11-13T20:33:04.967Z,99821.64
2022-11-13T20:38:25.401Z,99822.69
2022-11-13T20:43:47.497Z,99813.21
2022-11-13T20:49:07.993Z,99816.91
2022-11-13T20:54:28.584Z,99819.33
2022-11-13T20:59:48.876Z,99814.36
2022-11-13T21:05:09.445Z,99812.61
2022-11-13T21:10:29.925Z,99812.27
2022-11-13T21:15:50.334Z,99803.86
2022-11-13T21:21:12.135Z,99804.20
2022-11-13T21:26:32.897Z,99809.34
2022-11-13T21:31:53.453Z,99815.59
2022-11-13T21:37:14.694Z,99819.55
2022-11-13T21:42:34.992Z,99820.30
2022-11-13T21:47:55.588Z,99821.61
2022-11-13T21:53:16.110Z,99821.20
2022-11-13T21:58:37.476Z,99822.16
2022-11-13T22:03:57.912Z,99811.44
2022-11-13T22:09:25.524Z,99809.45
2022-11-13T22:14:53.330Z,99814.40
2022-11-13T22:20:14.271Z,99825.58
2022-11-13T22:25:34.743Z,99823.02
2022-11-13T22:30:55.740Z,99814.16
2022-11-13T22:36:17.535Z,99817.89
2022-11-13T22:41:38.082Z,99814.27
2022-11-13T22:46:58.546Z,99809.52
2022-11-13T22:52:18.984Z,99794.58
2022-11-13T22:57:39.384Z,99789.25
2022-11-13T23:03:00.770Z,99779.20
2022-11-13T23:08:21.352Z,99765.80
2022-11-13T23:13:45.837Z,99760.17
2022-11-13T23:19:06.246Z,99752.90
2022-11-13T23:24:26.585Z,99755.97
2022-11-13T23:29:50.068Z,99749.09
2022-11-13T23:35:10.890Z,99747.73
2022-11-13T23:40:31.592Z,99742.52
2022-11-13T23:45:52.419Z,99743.20
2022-11-13T23:51:12.886Z,99744.45
2022-11-13T23:56:33.209Z,99743.78
